createdAt,value
2023-04-27T00:03:26.897Z,101232.56
2023-04-27T00:08:30.065Z,101237.84
2023-04-27T00:13:33.083Z,101231.91
2023-04-27T00:18:36.028Z,101210.28
2023-04-27T00:23:39.009Z,101229.31
2023-04-27T00:28:42.101Z,101228.50
2023-04-27T00:33:45.104Z,101237.19
2023-04-27T00:38:48.483Z,101218.28
2023-04-27T00:43:51.650Z,101214.16
2023-04-27T00:48:55.873Z,101228.84
2023-04-27T00:53:59.231Z,101197.47
2023-04-27T00:59:02.291Z,101231.28
2023-04-27T01:04:05.470Z,101237.59
2023-04-27T01:09:09.645Z,101220.56
2023-04-27T01:14:12.942Z,101226.94
2023-04-27T01:19:16.266Z,101237.47
2023-04-27T01:24:19.506Z,101224.50
2023-04-27T01:29:22.697Z,101244.66
2023-04-27T01:34:25.627Z,101202.31
2023-04-27T01:39:28.568Z,101212.69
2023-04-27T01:44:31.555Z,101243.19
2023-04-27T01:49:34.569Z,101237.63
2023-04-27T01:54:37.546Z,101236.13
2023-04-27T01:59:42.479Z,101218.03
2023-04-27T02:04:45.730Z,101195.66
2023-04-27T02:09:48.759Z,101232.47
2023-04-27T02:14:51.753Z,101203.88
2023-04-27T02:19:54.674Z,101237.63
2023-04-27T02:24:57.633Z,101228.97
2023-04-27T02:30:08.608Z,101238.16
2023-04-27T02:35:12.408Z,101252.78
2023-04-27T02:40:15.540Z,101258.47
2023-04-27T02:45:18.506Z,101260.63
2023-04-27T02:50:21.711Z,101266.56
2023-04-27T02:55:24.606Z,101259.00
2023-04-27T03:00:27.738Z,101266.22
2023-04-27T03:05:32.132Z,101281.84
2023-04-27T03:10:35.173Z,101271.59
2023-04-27T03:15:39.132Z,101288.53
2023-04-27T03:20:42.107Z,101278.88
2023-04-27T03:25:45.218Z,101271.28
2023-04-27T03:30:48.219Z,101286.88
2023-04-27T03:35:58.111Z,101283.00
2023-04-27T03:41:01.384Z,101286.31
2023-04-27T03:46:04.496Z,101288.19
2023-04-27T03:51:07.701Z,101268.28
2023-04-27T03:56:11.096Z,101262.78
2023-04-27T04:01:15.055Z,101281.88
2023-04-27T04:06:18.234Z,101273.63
2023-04-27T04:11:22.828Z,101255.47
2023-04-27T04:16:29.046Z,101258.31
2023-04-27T04:21:32.382Z,101255.47
2023-04-27T04:26:35.777Z,101266.81
2023-04-27T04:31:38.899Z,101265.66
2023-04-27T04:36:42.112Z,101272.47
2023-04-27T04:41:45.068Z,101275.22
2023-04-27T04:46:49.146Z,101280.72
2023-04-27T04:51:52.118Z,101272.13
2023-04-27T04:56:55.114Z,101268.88
2023-04-27T05:01:58.201Z,101239.47
2023-04-27T05:07:01.479Z,101268.25
2023-04-27T05:12:04.803Z,101260.19
2023-04-27T05:17:08.226Z,101262.94
2023-04-27T05:22:11.237Z,101245.28
2023-04-27T05:27:15.184Z,101269.94
2023-04-27T05:32:18.177Z,101263.28
2023-04-27T05:37:21.355Z,101264.72
2023-04-27T05:42:24.418Z,101266.28
2023-04-27T05:47:27.461Z,101254.44
2023-04-27T05:52:31.514Z,101267.97
2023-04-27T05:57:34.728Z,101263.16
2023-04-27T06:02:37.943Z,101263.28
2023-04-27T06:07:44.109Z,101272.84
2023-04-27T06:12:47.149Z,101262.84
2023-04-27T06:17:50.170Z,101261.44
2023-04-27T06:22:53.114Z,101262.41
2023-04-27T06:27:56.728Z,101257.88
2023-04-27T06:32:59.719Z,101254.75
2023-04-27T06:38:04.746Z,101266.00
2023-04-27T06:43:09.059Z,101254.44
2023-04-27T06:48:12.109Z,101258.59
2023-04-27T06:53:15.222Z,101265.22
2023-04-27T06:58:18.294Z,101258.00
2023-04-27T07:03:22.747Z,101262.56
2023-04-27T07:08:27.381Z,101262.56
2023-04-27T07:13:30.817Z,101270.28
2023-04-27T07:18:33.898Z,101269.44
2023-04-27T07:23:36.983Z,101263.84
2023-04-27T07:28:40.468Z,101248.31
2023-04-27T07:33:44.029Z,101236.31
2023-04-27T07:38:47.072Z,101254.38
2023-04-27T07:43:52.136Z,101238.19
2023-04-27T07:48:55.630Z,101242.88
2023-04-27T07:53:58.476Z,101233.91
2023-04-27T07:59:01.762Z,101240.34
2023-04-27T08:04:05.364Z,101222.09
2023-04-27T08:09:10.402Z,101237.59
2023-04-27T08:14:14.173Z,101212.31
2023-04-27T08:19:17.090Z,101202.91
2023-04-27T08:24:21.269Z,101220.34
2023-04-27T08:29:28.440Z,101191.75
2023-04-27T08:34:32.346Z,101218.03
2023-04-27T08:39:35.435Z,101201.72
2023-04-27T08:44:40.554Z,101202.34
2023-04-27T08:49:43.580Z,101194.34
2023-04-27T08:54:46.588Z,101194.19
2023-04-27T08:59:59.559Z,101194.03
2023-04-27T09:05:03.660Z,101168.75
2023-04-27T09:10:08.956Z,101178.63
2023-04-27T09:15:11.996Z,101168.16
2023-04-27T09:20:15.454Z,101158.22
2023-04-27T09:25:29.923Z,101146.78
2023-04-27T09:30:32.942Z,101159.47
2023-04-27T09:35:36.931Z,101152.41
2023-04-27T09:40:40.994Z,101166.19
2023-04-27T09:45:44.335Z,101143.41
2023-04-27T09:50:48.970Z,101137.56
2023-04-27T09:56:09.824Z,101166.44
2023-04-27T10:01:27.528Z,101154.00
2023-04-27T10:06:54.271Z,101156.72
2023-04-27T10:12:39.447Z,101144.25
2023-04-27T10:17:51.020Z,101128.47
2023-04-27T10:22:54.109Z,101120.72
2023-04-27T10:28:00.112Z,101136.25
2023-04-27T10:33:09.018Z,101130.00
2023-04-27T10:38:27.474Z,101114.66
2023-04-27T10:43:34.347Z,101124.84
2023-04-27T10:48:42.009Z,101122.00
2023-04-27T10:53:45.191Z,101103.91
2023-04-27T10:58:49.513Z,101117.78
2023-04-27T11:04:00.093Z,101104.47
2023-04-27T11:09:03.086Z,101101.13
2023-04-27T11:14:06.270Z,101099.97
2023-04-27T11:19:09.352Z,101094.19
2023-04-27T11:24:15.254Z,101097.13
2023-04-27T11:29:18.589Z,101081.25
2023-04-27T11:34:23.614Z,101085.13
2023-04-27T11:39:33.586Z,101078.78
2023-04-27T11:44:36.650Z,101070.59
2023-04-27T11:49:39.764Z,101086.09
2023-04-27T11:54:54.175Z,101075.97
2023-04-27T12:00:00.643Z,101078.91
2023-04-27T12:05:05.233Z,101078.31
2023-04-27T12:10:09.421Z,101071.72
2023-04-27T12:15:12.838Z,101046.88
2023-04-27T12:20:15.991Z,101033.41
2023-04-27T12:25:20.103Z,101035.25
2023-04-27T12:30:24.219Z,101056.53
2023-04-27T12:35:27.318Z,101036.59
2023-04-27T12:40:30.352Z,101039.53
2023-04-27T12:45:36.146Z,101036.25
2023-04-27T12:50:39.408Z,101042.34
2023-04-27T12:55:42.400Z,101056.06
2023-04-27T13:00:45.558Z,101050.91
2023-04-27T13:05:48.524Z,101060.47
2023-04-27T13:10:51.567Z,101051.28
2023-04-27T13:15:54.573Z,101039.66
2023-04-27T13:20:58.330Z,101039.19
2023-04-27T13:26:01.887Z,101039.41
2023-04-27T13:31:05.140Z,101030.72
2023-04-27T13:36:09.547Z,101044.56
2023-04-27T13:41:12.645Z,101010.16
2023-04-27T13:46:15.879Z,101033.03
2023-04-27T13:51:19.105Z,101031.34
2023-04-27T13:56:22.083Z,101030.00
2023-04-27T14:01:25.337Z,101031.09
2023-04-27T14:06:28.398Z,101008.84
2023-04-27T14:11:33.954Z,101021.28
2023-04-27T14:16:42.734Z,101028.00
2023-04-27T14:21:45.646Z,101022.75
2023-04-27T14:26:49.833Z,101021.75
2023-04-27T14:31:53.054Z,101010.38
2023-04-27T14:36:56.095Z,100999.25
2023-04-27T14:41:59.076Z,101010.84
2023-04-27T14:47:02.121Z,101003.66
2023-04-27T14:52:06.890Z,100998.97
2023-04-27T14:57:09.907Z,101006.72
2023-04-27T15:02:13.217Z,101018.69
2023-04-27T15:07:16.315Z,101004.22
2023-04-27T15:12:19.260Z,101005.56
2023-04-27T15:17:22.208Z,101018.66
2023-04-27T15:22:25.314Z,101002.63
2023-04-27T15:27:28.393Z,101002.19
2023-04-27T15:32:31.773Z,101020.63
2023-04-27T15:37:36.699Z,101014.91
2023-04-27T15:42:39.713Z,101023.38
2023-04-27T15:47:42.715Z,101022.75
2023-04-27T15:52:46.139Z,101031.28
2023-04-27T15:57:49.995Z,101032.28
2023-04-27T16:02:53.506Z,101031.00
2023-04-27T16:07:56.698Z,101037.03
2023-04-27T16:12:59.686Z,101028.31
2023-04-27T16:18:02.759Z,101046.00
2023-04-27T16:23:05.744Z,101040.88
2023-04-27T16:28:09.274Z,101037.81
2023-04-27T16:33:12.396Z,101061.75
2023-04-27T16:38:15.584Z,101063.69
2023-04-27T16:43:18.794Z,101073.56
2023-04-27T16:48:21.976Z,101083.22
2023-04-27T16:53:25.219Z,101081.13
2023-04-27T16:58:29.534Z,101084.47
2023-04-27T17:03:33.660Z,101094.78
2023-04-27T17:08:36.672Z,101100.97
2023-04-27T17:13:39.673Z,101086.78
2023-04-27T17:18:43.353Z,101095.00
2023-04-27T17:23:46.944Z,101097.53
2023-04-27T17:28:50.133Z,101094.19
2023-04-27T17:33:53.767Z,101060.47
2023-04-27T17:38:56.923Z,101092.38
2023-04-27T17:44:00.062Z,101078.81
2023-04-27T17:49:03.132Z,101081.69
2023-04-27T17:54:06.126Z,101074.00
2023-04-27T17:59:09.465Z,101096.97
2023-04-27T18:04:12.558Z,101096.78
2023-04-27T18:09:16.418Z,101080.00
2023-04-27T18:14:19.522Z,101083.88
2023-04-27T18:19:23.098Z,101071.34
2023-04-27T18:24:26.131Z,101054.91
2023-04-27T18:29:29.695Z,101067.53
2023-04-27T18:34:33.509Z,101059.53
2023-04-27T18:39:36.589Z,101055.22
2023-04-27T18:44:39.558Z,101081.06
2023-04-27T18:49:42.493Z,101048.53
2023-04-27T18:54:45.566Z,101058.84
2023-04-27T18:59:48.735Z,101037.88
2023-04-27T19:05:01.535Z,101048.09
2023-04-27T19:10:11.322Z,101050.25
2023-04-27T19:15:14.754Z,101066.78
2023-04-27T19:20:17.788Z,101052.22
2023-04-27T19:25:20.969Z,101067.22
2023-04-27T19:30:24.056Z,101056.19
2023-04-27T19:35:27.779Z,101063.31
2023-04-27T19:40:31.014Z,101050.50
2023-04-27T19:45:34.286Z,101067.97
2023-04-27T19:50:41.670Z,101065.63
2023-04-27T19:55:45.085Z,101051.03
2023-04-27T20:00:48.041Z,101060.84
2023-04-27T20:05:52.081Z,101064.28
2023-04-27T20:10:55.553Z,101061.09
2023-04-27T20:15:58.568Z,101068.28
2023-04-27T20:21:01.616Z,101063.50
2023-04-27T20:26:04.609Z,101055.66
2023-04-27T20:31:07.765Z,101070.69
2023-04-27T20:36:17.340Z,101055.72
2023-04-27T20:41:22.758Z,101078.16
2023-04-27T20:46:25.781Z,101072.91
2023-04-27T20:51:29.560Z,101069.53
2023-04-27T20:56:33.374Z,101063.00
2023-04-27T21:01:36.448Z,101052.97
2023-04-27T21:06:39.844Z,101063.47
2023-04-27T21:11:42.977Z,101063.78
2023-04-27T21:16:45.988Z,101074.00
2023-04-27T21:21:49.030Z,101060.75
2023-04-27T21:26:51.989Z,101084.38
2023-04-27T21:31:55.042Z,101059.25
2023-04-27T21:36:58.717Z,101084.00
2023-04-27T21:42:01.699Z,101052.28
2023-04-27T21:47:04.666Z,101069.03
2023-04-27T21:52:07.690Z,101057.38
2023-04-27T21:57:11.000Z,101071.59
2023-04-27T22:02:14.060Z,101074.44
2023-04-27T22:07:17.842Z,101072.81
2023-04-27T22:12:21.056Z,101064.47
2023-04-27T22:17:24.160Z,101061.03
2023-04-27T22:22:27.291Z,101076.47
2023-04-27T22:27:42.034Z,101059.16
2023-04-27T22:32:47.626Z,101062.59
2023-04-27T22:37:51.343Z,101043.59
2023-04-27T22:42:55.480Z,101078.19
2023-04-27T22:47:58.666Z,101068.69
2023-04-27T22:53:01.731Z,101051.00
2023-04-27T22:58:04.697Z,101064.22
2023-04-27T23:03:07.875Z,101049.00
2023-04-27T23:08:11.032Z,101063.78
2023-04-27T23:13:14.455Z,101053.69
2023-04-27T23:18:17.474Z,101059.38
2023-04-27T23:23:20.546Z,101051.53
2023-04-27T23:28:23.555Z,101054.63
2023-04-27T23:33:26.606Z,101047.72
2023-04-27T23:38:29.706Z,101039.53
2023-04-27T23:43:34.334Z,101049.81
2023-04-27T23:48:37.433Z,101049.66
2023-04-27T23:53:40.407Z,101046.28
2023-04-27T23:58:43.493Z,101043.25
